Time;durP1;ratioP1;P1;durP2;ratioP2;P2;SDS_P1;SDS_P2;PMS_P1;PMS_P2;Temp;Humidity;BMP_temperature;BMP_pressure;BME280_temperature;BME280_humidity;BME280_pressure;Samples;Min_cycle;Max_cycle;Signal;HPM_P1;HPM_P2
2023/12/07 00:00:40;;;;;;;15.68;9.82;;;;;;;4.45;76.77;101268.44;4945694;28;20057;-80
2023/12/07 00:03:07;;;;;;;15.85;9.38;;;;;;;4.45;77.08;101266.66;4949404;28;20065;-80
2023/12/07 00:05:34;;;;;;;14.25;10.13;;;;;;;4.29;76.75;101231.59;4933060;28;20053;-83
2023/12/07 00:08:04;;;;;;;14.98;8.57;;;;;;;4.47;77.19;101267.44;4944196;28;20148;-82
2023/12/07 00:10:32;;;;;;;12.32;9.32;;;;;;;4.37;76.80;101249.56;4942314;28;20184;-82
2023/12/07 00:12:59;;;;;;;12.65;9.48;;;;;;;4.51;77.46;101270.75;4941482;28;20137;-82
2023/12/07 00:15:26;;;;;;;12.55;9.07;;;;;;;4.46;76.76;101265.72;4951911;28;20081;-81
2023/12/07 00:17:56;;;;;;;13.05;9.23;;;;;;;4.29;77.27;101253.47;4944597;28;20051;-81
2023/12/07 00:20:23;;;;;;;16.13;10.23;;;;;;;4.40;76.17;101266.06;4957056;28;20317;-83
2023/12/07 00:22:49;;;;;;;12.73;8.85;;;;;;;4.45;76.58;101279.81;4952942;28;20051;-82
2023/12/07 00:25:17;;;;;;;12.40;9.15;;;;;;;4.38;76.05;101256.56;4953794;28;20129;-82
2023/12/07 00:27:52;;;;;;;14.38;9.18;;;;;;;4.22;76.26;101241.59;4947408;28;20407;-82
2023/12/07 00:30:18;;;;;;;11.68;8.80;;;;;;;4.15;76.46;101218.31;4960322;28;20062;-80
2023/12/07 00:32:50;;;;;;;14.43;9.15;;;;;;;4.36;77.31;101251.38;4956141;28;20042;-82
2023/12/07 00:35:17;;;;;;;11.98;9.00;;;;;;;4.38;76.63;101261.81;4950491;28;20051;-81
2023/12/07 00:37:44;;;;;;;12.65;8.30;;;;;;;4.33;76.75;101253.31;4948506;28;20054;-80
2023/12/07 00:40:14;;;;;;;12.50;8.95;;;;;;;4.36;77.62;101261.88;4941656;28;20078;-82
2023/12/07 00:42:41;;;;;;;12.02;8.52;;;;;;;4.36;76.98;101256.63;4956612;28;20396;-83
2023/12/07 00:45:08;;;;;;;12.23;8.90;;;;;;;4.34;77.26;101236.59;4962772;28;20141;-83
2023/12/07 00:47:35;;;;;;;11.20;8.90;;;;;;;4.28;77.06;101235.16;4959673;28;20577;-82
2023/12/07 00:50:02;;;;;;;14.93;9.70;;;;;;;4.15;77.65;101215.69;4950031;28;20046;-81
2023/12/07 00:52:33;;;;;;;13.68;9.85;;;;;;;4.35;77.60;101254.09;4961435;28;20474;-83
2023/12/07 00:55:02;;;;;;;13.02;9.13;;;;;;;4.34;77.81;101249.75;4944703;28;20108;-82
2023/12/07 00:57:38;;;;;;;12.15;8.82;;;;;;;4.33;77.52;101262.06;4950071;28;20467;-82
2023/12/07 01:00:06;;;;;;;13.45;9.00;;;;;;;4.31;77.92;101266.53;4966267;28;20506;-82
2023/12/07 01:02:32;;;;;;;13.40;8.35;;;;;;;4.35;77.25;101269.88;4938214;28;20062;-81
2023/12/07 01:05:00;;;;;;;39.10;10.40;;;;;;;4.43;77.23;101259.78;4958267;28;20049;-81
2023/12/07 01:07:30;;;;;;;55.03;14.40;;;;;;;4.60;76.29;101267.63;4945759;28;20069;-82
2023/12/07 01:09:57;;;;;;;36.38;12.50;;;;;;;4.59;75.71;101257.22;4961770;28;20381;-82
2023/12/07 01:12:26;;;;;;;23.25;10.65;;;;;;;4.15;75.69;101198.16;4959606;28;20112;-82
2023/12/07 01:14:53;;;;;;;29.42;9.48;;;;;;;4.24;76.61;101238.88;4945428;28;20157;-81
2023/12/07 01:17:27;;;;;;;35.72;11.00;;;;;;;4.18;76.59;101249.72;4954492;28;20269;-82
2023/12/07 01:19:56;;;;;;;32.38;10.80;;;;;;;4.30;77.14;101272.72;4948218;28;20046;-80
2023/12/07 01:22:26;;;;;;;28.65;9.82;;;;;;;4.32;77.06;101283.16;4926665;28;20396;-83
2023/12/07 01:24:54;;;;;;;51.73;12.83;;;;;;;3.88;77.15;101220.59;4956695;28;20399;-83
2023/12/07 01:27:30;;;;;;;47.00;12.27;;;;;;;4.24;77.13;101294.91;4950769;28;20660;-81
2023/12/07 01:29:57;;;;;;;33.33;12.73;;;;;;;4.24;77.48;101307.19;4952931;28;20053;-81
2023/12/07 01:32:24;;;;;;;24.77;10.63;;;;;;;4.33;77.13;101295.38;4945875;28;20109;-82
2023/12/07 01:34:55;;;;;;;46.03;11.90;;;;;;;4.22;77.10;101298.53;4956341;28;20054;-82
2023/12/07 01:37:21;;;;;;;26.92;9.82;;;;;;;3.99;77.00;101283.97;4949888;28;20817;-83
2023/12/07 01:39:48;;;;;;;31.45;9.57;;;;;;;4.01;77.71;101301.34;4961436;28;20058;-82
2023/12/07 01:42:15;;;;;;;27.70;11.55;;;;;;;4.02;78.04;101294.31;4940499;28;20469;-81
2023/12/07 01:44:45;;;;;;;21.38;9.93;;;;;;;4.09;78.30;101311.47;4954489;28;20053;-81
2023/12/07 01:47:15;;;;;;;14.43;7.82;;;;;;;4.27;78.35;101318.44;4941223;28;20813;-82
2023/12/07 01:49:42;;;;;;;18.08;8.35;;;;;;;4.01;77.63;101290.84;4951191;28;20050;-82
2023/12/07 01:52:10;;;;;;;14.35;8.48;;;;;;;4.25;77.71;101325.53;4935394;28;20452;-82
2023/12/07 01:54:38;;;;;;;15.48;8.88;;;;;;;4.21;77.65;101336.28;4941213;28;20054;-82
2023/12/07 01:57:08;;;;;;;10.82;7.63;;;;;;;3.98;77.91;101298.88;4954523;28;20771;-82
2023/12/07 01:59:37;;;;;;;15.45;8.15;;;;;;;4.08;78.16;101312.41;4943491;28;20054;-82
2023/12/07 02:02:07;;;;;;;12.70;8.02;;;;;;;3.86;77.63;101267.97;4951121;28;20054;-81
2023/12/07 02:04:35;;;;;;;13.45;8.05;;;;;;;4.18;77.87;101339.06;4959705;28;20106;-83
2023/12/07 02:07:05;;;;;;;15.15;9.00;;;;;;;4.12;78.23;101348.09;4958872;28;20137;-83
2023/12/07 02:09:35;;;;;;;14.70;7.82;;;;;;;4.07;78.28;101340.44;4949029;28;20046;-82
2023/12/07 02:12:02;;;;;;;11.82;7.82;;;;;;;4.09;78.71;101345.63;4927211;28;20074;-84
2023/12/07 02:14:30;;;;;;;12.32;7.68;;;;;;;3.84;78.03;101306.59;4944810;28;20086;-83
2023/12/07 02:17:24;;;;;;;9.93;6.53;;;;;;;4.03;78.53;101346.78;4924360;28;20062;-83
2023/12/07 02:19:57;;;;;;;12.57;7.90;;;;;;;4.02;78.38;101345.06;4943188;28;20054;-81
2023/12/07 02:22:36;;;;;;;12.43;7.28;;;;;;;3.92;78.48;101328.06;4923861;28;20492;-82
2023/12/07 02:25:16;;;;;;;9.30;6.32;;;;;;;3.96;78.17;101334.88;4930389;28;20507;-82
2023/12/07 02:27:48;;;;;;;9.05;6.88;;;;;;;3.86;78.84;101317.88;4937085;28;20440;-82
2023/12/07 02:30:15;;;;;;;7.90;6.30;;;;;;;3.91;78.46;101329.00;4942469;28;20142;-82
2023/12/07 02:32:45;;;;;;;8.90;7.10;;;;;;;3.60;78.63;101285.84;4951722;28;20050;-81
2023/12/07 02:35:13;;;;;;;11.43;6.88;;;;;;;3.88;78.22;101321.25;4938120;28;20795;-82
2023/12/07 02:37:51;;;;;;;10.43;6.80;;;;;;;3.92;78.85;101332.47;4932525;28;20452;-83
2023/12/07 02:40:23;;;;;;;9.27;6.70;;;;;;;3.53;79.18;101273.94;4946584;28;20473;-81
2023/12/07 02:42:53;;;;;;;11.20;7.20;;;;;;;3.92;79.05;101333.31;4938876;28;20668;-82
2023/12/07 02:45:20;;;;;;;10.27;6.47;;;;;;;3.40;78.80;101252.72;4915194;28;20433;-82
2023/12/07 02:47:51;;;;;;;13.32;6.38;;;;;;;3.89;78.45;101312.47;4909514;28;20058;-82
2023/12/07 02:50:25;;;;;;;8.35;6.25;;;;;;;3.64;78.33;101274.28;4920833;28;20734;-82
2023/12/07 02:52:56;;;;;;;7.13;6.18;;;;;;;3.60;78.44;101275.34;4914338;28;20500;-82
2023/12/07 02:55:23;;;;;;;9.02;6.57;;;;;;;3.83;78.50;101321.47;4945133;28;20043;-81
2023/12/07 02:57:51;;;;;;;11.20;6.35;;;;;;;3.92;78.15;101337.72;4937728;28;20551;-81
2023/12/07 03:00:18;;;;;;;7.68;6.60;;;;;;;3.91;78.39;101338.63;4933090;28;20089;-82
2023/12/07 03:02:45;;;;;;;7.22;6.22;;;;;;;3.73;78.28;101309.72;4949335;28;20067;-82
2023/12/07 03:05:11;;;;;;;7.32;6.13;;;;;;;3.71;78.55;101326.50;4957711;28;20762;-81
2023/12/07 03:07:39;;;;;;;6.82;6.13;;;;;;;3.62;78.09;101320.78;4948043;28;20182;-81
2023/12/07 03:10:06;;;;;;;8.63;6.57;;;;;;;3.72;78.45;101341.34;4936013;28;20089;-80
2023/12/07 03:12:35;;;;;;;7.55;6.22;;;;;;;3.69;78.27;101341.47;4944780;28;20058;-82
2023/12/07 03:15:04;;;;;;;9.45;6.43;;;;;;;3.77;78.26;101358.56;4962000;28;20388;-82
2023/12/07 03:17:31;;;;;;;6.65;5.82;;;;;;;2.92;78.24;101220.00;4950432;28;20051;-81
2023/12/07 03:20:01;;;;;;;7.90;6.20;;;;;;;3.75;78.10;101363.03;4938563;28;20562;-82
2023/12/07 03:22:30;;;;;;;8.65;6.40;;;;;;;3.75;78.51;101357.78;4950374;28;20054;-82
2023/12/07 03:25:02;;;;;;;10.27;6.63;;;;;;;3.53;78.46;101321.22;4930792;28;20054;-82
2023/12/07 03:27:33;;;;;;;9.68;6.45;;;;;;;3.87;78.13;101366.00;4922876;28;20056;-84
2023/12/07 03:30:05;;;;;;;13.43;6.65;;;;;;;3.73;78.03;101345.66;4923653;28;20076;-83
2023/12/07 03:32:32;;;;;;;7.72;5.85;;;;;;;3.87;77.49;101361.59;4928671;28;20050;-83
2023/12/07 03:35:00;;;;;;;9.18;6.55;;;;;;;3.83;78.19;101365.28;4939110;28;20055;-82
2023/12/07 03:37:29;;;;;;;8.38;5.93;;;;;;;3.78;77.69;101367.28;4956498;28;20130;-82
2023/12/07 03:39:56;;;;;;;7.82;5.53;;;;;;;3.70;78.35;101362.41;4944791;28;20062;-81
2023/12/07 03:42:23;;;;;;;7.57;6.25;;;;;;;3.75;77.67;101370.91;4941083;28;20144;-81
2023/12/07 03:45:10;;;;;;;7.05;5.90;;;;;;;3.71;77.81;101365.88;4945239;28;20516;-81
2023/12/07 03:47:41;;;;;;;7.82;6.03;;;;;;;3.68;78.02;101368.66;4948993;28;20053;-81
2023/12/07 03:50:08;;;;;;;10.68;6.78;;;;;;;3.65;78.36;101361.78;4953643;28;20347;-82
2023/12/07 03:52:35;;;;;;;8.00;6.18;;;;;;;3.65;78.65;101361.78;4951539;28;20053;-81
2023/12/07 03:55:02;;;;;;;9.63;6.72;;;;;;;3.55;78.83;101329.03;4920279;28;20060;-81
2023/12/07 03:57:30;;;;;;;8.02;6.00;;;;;;;3.62;78.57;101356.69;4939678;28;20145;-82
2023/12/07 03:59:57;;;;;;;8.82;6.45;;;;;;;3.06;78.51;101274.47;4938465;28;20432;-83
2023/12/07 04:02:32;;;;;;;6.88;5.55;;;;;;;3.58;78.68;101363.84;4923909;28;20057;-82
2023/12/07 04:05:03;;;;;;;10.00;5.95;;;;;;;3.50;78.71;101350.25;4920892;28;20096;-82
2023/12/07 04:07:31;;;;;;;9.43;5.97;;;;;;;3.53;78.75;101372.88;4950001;28;20050;-81
2023/12/07 04:10:01;;;;;;;8.88;5.40;;;;;;;3.68;78.26;101390.50;4938260;28;20309;-80
2023/12/07 04:12:31;;;;;;;8.00;5.65;;;;;;;3.38;78.04;101327.19;4956992;28;20837;-82
2023/12/07 04:15:00;;;;;;;8.25;5.50;;;;;;;3.73;78.39;101395.56;4940917;28;20054;-82
2023/12/07 04:17:26;;;;;;;7.32;5.63;;;;;;;3.67;78.20;101382.72;4945564;28;20053;-81
2023/12/07 04:19:53;;;;;;;9.95;5.78;;;;;;;3.57;78.35;101372.66;4947624;28;20496;-81
2023/12/07 04:22:20;;;;;;;7.28;5.97;;;;;;;3.65;78.17;101393.28;4949179;28;23152;-81
2023/12/07 04:24:47;;;;;;;6.68;5.15;;;;;;;3.67;78.29;101406.38;4946740;28;20051;-81
2023/12/07 04:27:14;;;;;;;11.57;5.90;;;;;;;3.64;78.28;101405.59;4937542;28;20265;-82
2023/12/07 04:29:41;;;;;;;7.05;5.32;;;;;;;3.60;77.58;101406.63;4956927;28;20133;-82
2023/12/07 04:32:11;;;;;;;7.00;5.40;;;;;;;3.29;77.94;101361.75;4963033;28;20140;-82
2023/12/07 04:34:38;;;;;;;7.43;5.43;;;;;;;3.56;77.25;101410.31;4951790;28;20050;-81
2023/12/07 04:37:09;;;;;;;9.50;5.38;;;;;;;3.55;77.75;101405.16;4932953;28;20371;-82
2023/12/07 04:39:43;;;;;;;8.73;6.22;;;;;;;3.61;77.82;101407.47;4917902;28;20361;-81
2023/12/07 04:42:21;;;;;;;8.68;5.72;;;;;;;3.56;77.98;101402.44;4930426;28;20596;-81
2023/12/07 04:44:51;;;;;;;6.78;5.13;;;;;;;3.54;78.11;101406.91;4921970;28;20429;-81
2023/12/07 04:47:22;;;;;;;7.13;5.85;;;;;;;3.47;78.14;101405.53;4906306;28;20320;-82
2023/12/07 04:49:49;;;;;;;6.65;4.80;;;;;;;3.51;78.15;101412.31;4950612;28;20074;-80
2023/12/07 04:52:17;;;;;;;7.45;5.30;;;;;;;3.48;78.25;101412.47;4942679;28;20046;-81
2023/12/07 04:54:43;;;;;;;6.05;4.97;;;;;;;3.24;77.63;101371.59;4941484;28;20046;-82
2023/12/07 04:57:10;;;;;;;6.47;5.10;;;;;;;3.20;77.91;101377.00;4943906;28;20046;-81
2023/12/07 04:59:39;;;;;;;6.72;5.28;;;;;;;3.45;78.38;101420.50;4959252;28;20047;-81
2023/12/07 05:02:07;;;;;;;9.73;5.57;;;;;;;3.43;78.24;101419.69;4949751;28;20050;-81
2023/12/07 05:04:34;;;;;;;9.05;5.18;;;;;;;3.39;77.39;101429.47;4942018;28;20053;-81
2023/12/07 05:07:03;;;;;;;9.07;5.95;;;;;;;3.30;77.83;101413.28;4942171;28;20054;-82
2023/12/07 05:09:31;;;;;;;9.30;5.72;;;;;;;3.30;77.96;101419.41;4951300;28;20451;-82
2023/12/07 05:11:58;;;;;;;5.80;4.80;;;;;;;3.38;78.16;101432.19;4959188;28;20072;-80
2023/12/07 05:14:25;;;;;;;6.05;5.13;;;;;;;3.31;77.48;101417.66;4955113;28;20499;-82
2023/12/07 05:16:55;;;;;;;8.13;5.32;;;;;;;3.37;77.80;101438.34;4949847;28;20527;-82
2023/12/07 05:19:25;;;;;;;6.05;5.32;;;;;;;3.35;78.18;101438.44;4948679;28;20046;-81
2023/12/07 05:21:52;;;;;;;8.50;5.70;;;;;;;3.29;78.58;101427.34;4925989;28;20042;-81
2023/12/07 05:24:21;;;;;;;11.82;5.40;;;;;;;3.42;78.65;101444.22;4936588;28;20054;-81
2023/12/07 05:26:54;;;;;;;7.45;5.30;;;;;;;3.21;78.27;101415.44;4934368;28;20129;-84
2023/12/07 05:29:23;;;;;;;8.35;5.63;;;;;;;3.37;78.52;101441.84;4947077;28;20382;-83
2023/12/07 05:31:53;;;;;;;7.60;4.93;;;;;;;3.36;78.59;101441.91;4933630;28;20530;-84
2023/12/07 05:34:22;;;;;;;7.40;5.65;;;;;;;3.41;78.09;101463.53;4942266;28;20319;-83
2023/12/07 05:36:49;;;;;;;8.25;5.85;;;;;;;3.05;78.19;101403.06;4941436;28;20117;-83
2023/12/07 05:39:17;;;;;;;13.10;5.88;;;;;;;3.24;77.83;101439.84;4944291;28;20046;-82
2023/12/07 05:41:46;;;;;;;10.73;6.53;;;;;;;3.18;77.54;101423.44;4938997;28;20081;-83
2023/12/07 05:44:21;;;;;;;13.63;5.68;;;;;;;3.33;77.91;101449.91;4919365;28;20142;-83
2023/12/07 05:46:54;;;;;;;10.77;5.75;;;;;;;3.39;78.61;101462.75;4922222;28;20612;-83
2023/12/07 05:49:22;;;;;;;12.30;6.50;;;;;;;3.36;78.61;101465.53;4926508;28;20808;-83
2023/12/07 05:51:49;;;;;;;8.07;5.78;;;;;;;3.04;78.03;101414.50;4925438;28;20674;-82
2023/12/07 05:54:16;;;;;;;10.38;5.45;;;;;;;3.40;77.61;101469.72;4952850;28;20355;-84
2023/12/07 05:56:43;;;;;;;7.78;5.15;;;;;;;3.28;78.22;101455.38;4951476;28;20058;-81
2023/12/07 05:59:10;;;;;;;11.50;5.38;;;;;;;3.28;78.56;101463.25;4944916;28;20046;-83
2023/12/07 06:01:37;;;;;;;6.70;5.07;;;;;;;3.32;77.82;101487.56;4963510;28;20058;-81
2023/12/07 06:04:10;;;;;;;5.95;5.35;;;;;;;3.33;78.51;101476.16;4945837;28;20059;-81
2023/12/07 06:06:37;;;;;;;11.38;7.00;;;;;;;3.30;77.93;101476.28;4938122;28;20447;-81
2023/12/07 06:09:05;;;;;;;15.60;7.65;;;;;;;3.34;78.64;101476.06;4950203;28;20127;-82
2023/12/07 06:11:36;;;;;;;13.13;5.90;;;;;;;3.45;78.50;101486.13;4960504;28;20058;-82
2023/12/07 06:14:07;;;;;;;10.35;6.13;;;;;;;3.37;78.87;101456.72;4945355;28;20054;-82
2023/12/07 06:16:35;;;;;;;18.42;6.13;;;;;;;3.46;78.45;101456.31;4956752;28;20257;-80
2023/12/07 06:19:03;;;;;;;15.38;6.68;;;;;;;3.70;77.94;101479.75;4953706;28;20060;-81
2023/12/07 06:21:31;;;;;;;15.98;7.35;;;;;;;3.42;77.44;101431.09;4951857;28;20135;-80
2023/12/07 06:23:58;;;;;;;13.23;6.72;;;;;;;3.53;77.30;101451.63;4955063;28;20042;-82
2023/12/07 06:26:26;;;;;;;11.32;7.00;;;;;;;3.47;77.31;101452.78;4948048;28;20420;-83
2023/12/07 06:28:53;;;;;;;12.13;6.55;;;;;;;3.62;77.48;101480.94;4952486;28;20078;-83
2023/12/07 06:31:21;;;;;;;16.27;7.30;;;;;;;3.57;77.85;101466.34;4951578;28;20523;-82
2023/12/07 06:33:48;;;;;;;12.40;7.18;;;;;;;3.87;77.12;101482.44;4948129;28;20050;-82
2023/12/07 06:36:23;;;;;;;12.57;7.25;;;;;;;3.90;76.54;101470.94;4951996;28;20550;-82
2023/12/07 06:38:50;;;;;;;16.05;7.55;;;;;;;4.04;75.78;101479.84;4947724;28;20318;-82
2023/12/07 06:41:17;;;;;;;16.80;8.45;;;;;;;3.99;75.53;101470.50;4963987;28;20058;-82
2023/12/07 06:43:47;;;;;;;17.05;8.27;;;;;;;3.87;76.07;101487.69;4946143;28;20043;-82
2023/12/07 06:46:14;;;;;;;13.95;7.38;;;;;;;3.75;75.79;101478.59;4947273;28;20046;-82
2023/12/07 06:48:41;;;;;;;15.65;7.20;;;;;;;3.78;76.51;101498.63;4954975;28;20473;-81
2023/12/07 06:51:14;;;;;;;16.23;6.75;;;;;;;3.64;76.71;101476.47;4933740;28;20484;-82
2023/12/07 06:53:41;;;;;;;16.48;7.70;;;;;;;3.69;77.20;101493.78;4949926;28;20046;-81
2023/12/07 06:56:08;;;;;;;13.00;6.95;;;;;;;3.71;77.70;101505.06;4951742;28;20054;-81
2023/12/07 06:58:35;;;;;;;11.85;7.18;;;;;;;3.63;77.57;101489.66;4961832;28;20112;-81
2023/12/07 07:01:06;;;;;;;9.30;6.43;;;;;;;3.72;77.32;101510.25;4956852;28;20084;-82
2023/12/07 07:03:34;;;;;;;9.95;6.13;;;;;;;3.86;76.84;101528.03;4944987;28;20145;-82
2023/12/07 07:06:02;;;;;;;15.98;6.15;;;;;;;3.53;76.70;101472.63;4961432;28;20108;-82
2023/12/07 07:08:31;;;;;;;15.40;5.72;;;;;;;3.40;76.99;101449.56;4948058;28;20130;-82
2023/12/07 07:10:57;;;;;;;12.18;6.03;;;;;;;3.83;77.04;101520.25;4953462;28;20470;-81
2023/12/07 07:13:24;;;;;;;18.08;6.32;;;;;;;3.89;76.94;101530.50;4948749;28;20054;-82
2023/12/07 07:15:52;;;;;;;7.68;5.15;;;;;;;3.78;76.83;101504.72;4956282;28;20141;-80
2023/12/07 07:18:20;;;;;;;9.77;6.05;;;;;;;3.98;76.97;101535.34;4943666;28;20524;-81
2023/12/07 07:20:47;;;;;;;13.50;6.28;;;;;;;4.00;76.67;101533.47;4935728;28;20050;-81
2023/12/07 07:23:14;;;;;;;16.02;6.40;;;;;;;3.56;76.35;101460.22;4941858;28;20077;-81
2023/12/07 07:25:41;;;;;;;16.83;7.05;;;;;;;3.11;76.95;101408.06;4933344;28;20108;-83
2023/12/07 07:28:12;;;;;;;15.50;6.60;;;;;;;4.01;76.34;101543.06;4951740;28;20376;-83
2023/12/07 07:30:39;;;;;;;16.73;6.32;;;;;;;4.12;76.31;101560.09;4948604;28;20074;-82
2023/12/07 07:33:06;;;;;;;18.35;6.57;;;;;;;4.13;76.92;101564.47;4947845;28;20050;-83
2023/12/07 07:35:34;;;;;;;14.02;6.82;;;;;;;4.13;76.46;101561.81;4945787;28;20267;-80
2023/12/07 07:38:00;;;;;;;14.77;7.55;;;;;;;3.91;77.07;101518.16;4938046;28;20049;-81
2023/12/07 07:40:27;;;;;;;17.17;6.38;;;;;;;4.16;77.14;101553.78;4939178;28;20053;-81
2023/12/07 07:42:54;;;;;;;17.45;5.57;;;;;;;4.13;77.58;101543.44;4936456;28;20362;-83
2023/12/07 07:45:24;;;;;;;15.10;6.00;;;;;;;4.07;76.17;101520.91;4958057;28;20087;-81
2023/12/07 07:47:51;;;;;;;7.63;5.50;;;;;;;4.33;75.79;101547.75;4948767;28;20050;-81
2023/12/07 07:50:18;;;;;;;9.10;5.65;;;;;;;4.43;74.73;101551.63;4936921;28;20497;-81
2023/12/07 07:52:48;;;;;;;14.85;5.40;;;;;;;4.61;74.04;101549.88;4951096;28;20046;-82
2023/12/07 07:55:18;;;;;;;12.00;5.72;;;;;;;4.35;73.42;101509.94;4950987;28;20303;-79
2023/12/07 07:57:45;;;;;;;12.63;5.18;;;;;;;4.64;73.87;101553.22;4947504;28;20085;-82
2023/12/07 08:00:13;;;;;;;7.80;4.47;;;;;;;4.76;72.87;101567.56;4932258;28;20323;-79
2023/12/07 08:02:39;;;;;;;12.43;6.68;;;;;;;4.81;73.08;101570.81;4914264;28;20130;-82
2023/12/07 08:05:06;;;;;;;9.40;5.18;;;;;;;4.64;73.76;101541.84;4924018;28;20407;-82
2023/12/07 08:07:33;;;;;;;8.15;5.15;;;;;;;4.87;71.79;101565.22;4953825;28;20495;-82
2023/12/07 08:10:04;;;;;;;13.30;6.20;;;;;;;4.98;71.42;101571.75;4941709;28;20409;-81
2023/12/07 08:12:31;;;;;;;9.15;5.70;;;;;;;5.04;72.25;101566.16;4941037;28;20046;-80
2023/12/07 08:14:57;;;;;;;14.27;4.82;;;;;;;5.22;70.12;101569.63;4933232;28;20606;-79
2023/12/07 08:17:35;;;;;;;8.25;4.47;;;;;;;5.24;69.11;101559.88;4895312;28;20321;-73
2023/12/07 08:20:05;;;;;;;8.35;5.47;;;;;;;5.35;68.37;101563.69;4915662;28;20318;-82
2023/12/07 08:22:32;;;;;;;8.43;5.78;;;;;;;5.51;69.22;101570.78;4913844;28;20746;-81
2023/12/07 08:25:00;;;;;;;8.40;5.00;;;;;;;5.62;67.26;101568.44;4930484;28;20161;-83
2023/12/07 08:27:38;;;;;;;16.67;4.90;;;;;;;5.68;67.65;101578.66;4897117;28;20730;-81
2023/12/07 08:30:19;;;;;;;7.45;3.97;;;;;;;5.71;67.61;101580.28;4920774;28;20479;-83
2023/12/07 08:32:54;;;;;;;6.45;3.75;;;;;;;5.67;66.00;101560.28;4915852;28;20210;-83
2023/12/07 08:35:22;;;;;;;6.70;4.35;;;;;;;5.83;65.55;101589.31;4910930;28;20506;-81
2023/12/07 08:37:59;;;;;;;7.28;4.18;;;;;;;5.89;64.85;101596.88;4938652;28;20061;-79
2023/12/07 08:40:37;;;;;;;6.15;4.03;;;;;;;5.88;65.08;101587.28;4924698;28;20229;-78
2023/12/07 08:43:05;;;;;;;12.00;4.55;;;;;;;5.81;65.27;101575.38;4948100;28;20056;-81
2023/12/07 08:45:32;;;;;;;10.82;4.43;;;;;;;5.94;64.94;101581.72;4961757;28;20085;-81
2023/12/07 08:48:05;;;;;;;5.95;4.53;;;;;;;6.05;64.75;101591.69;4954747;28;20289;-81
2023/12/07 08:50:36;;;;;;;6.78;4.22;;;;;;;6.14;64.68;101591.16;4961584;28;20212;-81
2023/12/07 08:53:03;;;;;;;5.38;3.92;;;;;;;6.05;64.04;101552.16;4960704;28;20101;-80
2023/12/07 08:55:31;;;;;;;6.80;4.60;;;;;;;6.03;63.78;101552.22;4955743;28;20054;-81
2023/12/07 08:57:59;;;;;;;6.68;4.90;;;;;;;6.29;62.62;101595.63;4952149;28;20062;-81
2023/12/07 09:00:26;;;;;;;6.15;4.45;;;;;;;6.38;63.28;101596.88;4937638;28;20416;-83
2023/12/07 09:02:53;;;;;;;14.57;4.72;;;;;;;6.45;62.66;101600.03;4940532;28;20055;-83
2023/12/07 09:05:20;;;;;;;7.82;4.78;;;;;;;6.41;62.56;101605.50;4908551;28;20497;-82
2023/12/07 09:07:47;;;;;;;8.15;4.15;;;;;;;6.48;62.33;101595.47;4931362;28;20054;-80
2023/12/07 09:10:14;;;;;;;10.18;4.57;;;;;;;6.28;61.62;101561.41;4921706;28;20718;-82
2023/12/07 09:12:42;;;;;;;7.22;4.10;;;;;;;6.50;61.53;101614.66;4916890;28;20048;-81
2023/12/07 09:15:12;;;;;;;6.38;4.72;;;;;;;6.60;59.76;101607.97;4918029;28;20053;-82
2023/12/07 09:17:43;;;;;;;14.10;4.60;;;;;;;6.66;59.47;101583.00;4916639;28;20120;-80
2023/12/07 09:20:14;;;;;;;6.15;4.25;;;;;;;6.76;58.89;101593.88;4935623;28;20491;-81
2023/12/07 09:22:48;;;;;;;5.80;4.22;;;;;;;6.92;58.49;101605.28;4956886;28;20496;-80
2023/12/07 09:25:16;;;;;;;5.40;3.40;;;;;;;6.34;58.75;101492.50;4946649;28;20058;-82
2023/12/07 09:27:43;;;;;;;8.05;4.15;;;;;;;7.10;58.47;101618.34;4939692;28;20113;-82
2023/12/07 09:30:11;;;;;;;8.02;3.90;;;;;;;7.08;58.00;101618.44;4917923;28;20065;-82
2023/12/07 09:32:42;;;;;;;6.07;3.92;;;;;;;7.17;58.66;101623.19;4917838;28;20070;-83
2023/12/07 09:35:15;;;;;;;7.35;4.50;;;;;;;7.16;58.71;101602.13;4939872;28;20567;-80
2023/12/07 09:37:43;;;;;;;7.47;4.88;;;;;;;7.39;57.54;101625.41;4943352;28;20050;-81
2023/12/07 09:40:20;;;;;;;12.75;4.93;;;;;;;7.33;58.08;101615.22;4955495;28;20081;-82
2023/12/07 09:42:48;;;;;;;8.75;5.03;;;;;;;7.38;58.00;101629.00;4958132;28;20519;-81
2023/12/07 09:45:20;;;;;;;9.33;6.50;;;;;;;7.44;58.04;101628.63;4947201;28;20147;-83
2023/12/07 09:47:54;;;;;;;7.68;5.78;;;;;;;7.39;57.48;101608.72;4916567;28;20058;-83
2023/12/07 09:50:23;;;;;;;11.82;7.25;;;;;;;7.42;58.34;101625.22;4923395;28;20054;-81
2023/12/07 09:52:52;;;;;;;11.15;6.68;;;;;;;7.58;57.37;101629.59;4949495;28;20046;-81
2023/12/07 09:55:34;;;;;;;13.27;6.97;;;;;;;7.52;57.78;101617.59;4941182;28;20472;-82
2023/12/07 09:58:04;;;;;;;12.15;8.25;;;;;;;7.49;57.94;101629.19;4941295;28;20054;-83
2023/12/07 10:00:37;;;;;;;12.82;8.10;;;;;;;7.60;58.33;101625.09;4941152;28;20083;-83
2023/12/07 10:03:19;;;;;;;15.75;8.32;;;;;;;7.32;57.58;101602.09;4944943;28;20058;-82
2023/12/07 10:06:02;;;;;;;12.20;7.97;;;;;;;7.53;58.40;101623.75;4929813;28;20443;-82
2023/12/07 10:08:37;;;;;;;14.45;9.35;;;;;;;7.49;58.49;101601.94;4945721;28;20536;-82
2023/12/07 10:11:09;;;;;;;15.20;10.57;;;;;;;7.32;59.02;101565.09;4934315;28;20323;-83
2023/12/07 10:13:37;;;;;;;20.73;10.75;;;;;;;7.54;58.31;101578.72;4932549;28;20042;-83
2023/12/07 10:16:09;;;;;;;18.60;11.40;;;;;;;7.65;58.49;101583.38;4948143;28;20054;-82
2023/12/07 10:18:40;;;;;;;20.98;14.15;;;;;;;7.80;58.30;101600.09;4934458;28;20400;-82
2023/12/07 10:21:10;;;;;;;25.77;14.45;;;;;;;7.92;57.10;101592.22;4930286;28;20485;-82
2023/12/07 10:23:39;;;;;;;25.95;15.55;;;;;;;8.03;56.43;101588.91;4948954;28;20046;-82
2023/12/07 10:26:06;;;;;;;25.90;14.82;;;;;;;7.55;57.08;101495.00;4950991;28;20046;-82
2023/12/07 10:28:39;;;;;;;23.08;15.20;;;;;;;7.92;56.73;101554.38;4941876;28;20412;-82
2023/12/07 10:31:10;;;;;;;25.60;15.10;;;;;;;8.03;56.86;101558.97;4933060;28;20557;-82
2023/12/07 10:33:37;;;;;;;24.52;13.95;;;;;;;8.20;56.80;101589.66;4936260;28;20158;-82
2023/12/07 10:36:06;;;;;;;23.92;14.45;;;;;;;8.19;56.82;101591.44;4947394;28;20481;-83
2023/12/07 10:38:36;;;;;;;24.60;14.18;;;;;;;8.21;56.75;101576.34;4951680;28;20115;-82
2023/12/07 10:41:08;;;;;;;25.30;14.43;;;;;;;8.27;56.94;101588.31;4937473;28;20480;-82
2023/12/07 10:43:38;;;;;;;24.38;15.45;;;;;;;8.33;56.34;101583.50;4956119;28;20054;-82
2023/12/07 10:46:05;;;;;;;20.77;13.50;;;;;;;8.45;55.73;101581.06;4955704;28;20491;-82
2023/12/07 10:48:35;;;;;;;22.05;13.50;;;;;;;8.38;56.09;101582.34;4939269;28;20571;-82
2023/12/07 10:51:09;;;;;;;22.83;14.25;;;;;;;8.20;56.65;101556.09;4935078;28;20053;-82
2023/12/07 10:53:43;;;;;;;21.88;13.65;;;;;;;8.13;56.93;101547.72;4930230;28;20076;-81
2023/12/07 10:56:15;;;;;;;19.95;12.98;;;;;;;8.07;57.24;101536.69;4938179;28;20489;-80
2023/12/07 10:58:45;;;;;;;19.35;14.00;;;;;;;8.27;57.17;101565.34;4925435;28;20525;-80
2023/12/07 11:01:14;;;;;;;22.20;13.55;;;;;;;8.28;57.27;101567.06;4913738;28;20622;-82
2023/12/07 11:03:43;;;;;;;18.95;13.55;;;;;;;8.39;57.24;101562.88;4924021;28;20547;-80
2023/12/07 11:06:10;;;;;;;18.52;11.70;;;;;;;8.16;56.83;101522.03;4930183;28;20157;-81
2023/12/07 11:08:47;;;;;;;22.25;13.82;;;;;;;8.09;56.43;101484.56;4916558;28;20491;-81
2023/12/07 11:11:47;;;;;;;23.05;13.02;;;;;;;8.26;56.84;101531.91;4953850;28;20047;-80
2023/12/07 11:14:16;;;;;;;23.02;13.70;;;;;;;8.40;57.67;101546.94;4953835;28;20133;-83
2023/12/07 11:16:46;;;;;;;18.05;12.23;;;;;;;8.37;57.27;101554.19;4948440;28;20066;-83
2023/12/07 11:19:41;;;;;;;19.80;12.48;;;;;;;8.24;58.19;101528.53;4952743;28;20050;-83
2023/12/07 11:22:13;;;;;;;21.38;13.73;;;;;;;8.42;57.84;101552.97;4940275;28;20343;-84
2023/12/07 11:25:02;;;;;;;21.30;14.27;;;;;;;8.39;57.31;101536.41;4904208;28;20204;-83
2023/12/07 11:27:36;;;;;;;21.27;13.57;;;;;;;8.43;57.84;101543.25;4918690;28;20396;-82
2023/12/07 11:30:07;;;;;;;21.40;14.55;;;;;;;8.38;58.09;101542.66;4918610;28;20608;-80
2023/12/07 11:32:34;;;;;;;26.63;14.48;;;;;;;8.23;58.63;101518.91;4915376;28;20432;-83
2023/12/07 11:35:04;;;;;;;24.85;14.82;;;;;;;8.45;58.77;101533.41;4906505;28;20201;-83
2023/12/07 11:38:02;;;;;;;20.95;13.93;;;;;;;8.42;59.00;101529.16;4942829;28;20565;-82